Time;durP1;ratioP1;P1;durP2;ratioP2;P2;SDS_P1;SDS_P2;PMS_P1;PMS_P2;Temp;Humidity;BMP_temperature;BMP_pressure;BME280_temperature;BME280_humidity;BME280_pressure;Samples;Min_cycle;Max_cycle;Signal;HPM_P1;HPM_P2
2024/01/08 00:02:09;;;;;;;14.13;6.33;;;;;;;-2.79;84.05;102943.44;4984781;28;20026;-91
2024/01/08 00:04:34;;;;;;;11.13;5.77;;;;;;;-2.79;84.95;102940.88;4970369;28;20026;-90
2024/01/08 00:07:00;;;;;;;11.20;5.67;;;;;;;-2.80;84.32;102934.03;4987868;28;20072;-91
2024/01/08 00:09:25;;;;;;;9.70;5.70;;;;;;;-2.77;84.19;102934.22;4988708;28;20029;-91
2024/01/08 00:11:51;;;;;;;12.33;6.20;;;;;;;-2.80;83.83;102934.03;4984135;28;20030;-91
2024/01/08 00:14:16;;;;;;;15.03;7.73;;;;;;;-2.85;82.96;102940.47;4967041;28;20422;-90
2024/01/08 00:16:41;;;;;;;12.13;6.27;;;;;;;-2.83;84.10;102938.91;4980053;28;20030;-90
2024/01/08 00:19:07;;;;;;;14.77;7.27;;;;;;;-2.86;83.77;102939.63;4986709;28;20038;-90
2024/01/08 00:21:32;;;;;;;14.93;7.27;;;;;;;-2.84;84.40;102943.16;4967507;28;20471;-91
2024/01/08 00:23:58;;;;;;;18.83;8.57;;;;;;;-2.81;82.88;102943.31;4967814;28;20027;-91
2024/01/08 00:26:24;;;;;;;20.27;9.33;;;;;;;-2.82;82.62;102945.78;4984189;28;20154;-90
2024/01/08 00:28:50;;;;;;;17.30;8.03;;;;;;;-2.81;83.07;102950.09;4984816;28;20054;-91
2024/01/08 00:31:15;;;;;;;20.17;9.97;;;;;;;-2.81;82.35;102950.09;4986475;28;20057;-90
2024/01/08 00:33:40;;;;;;;20.57;9.93;;;;;;;-2.81;82.84;102945.00;4984423;28;20022;-91
2024/01/08 00:36:06;;;;;;;24.13;10.90;;;;;;;-2.77;82.40;102942.72;4983600;28;20033;-90
2024/01/08 00:38:31;;;;;;;24.80;11.57;;;;;;;-2.77;82.82;102947.81;4969265;28;20026;-91
2024/01/08 00:40:57;;;;;;;25.40;11.07;;;;;;;-2.78;82.58;102945.19;4987846;28;20041;-90
2024/01/08 00:43:22;;;;;;;22.17;11.50;;;;;;;-2.77;82.89;102949.50;4982158;28;20122;-91
2024/01/08 00:45:47;;;;;;;21.27;10.53;;;;;;;-2.77;83.34;102950.38;4985686;28;20093;-91
2024/01/08 00:48:13;;;;;;;24.37;10.80;;;;;;;-2.78;82.17;102940.09;4971472;28;20022;-91
2024/01/08 00:50:38;;;;;;;20.83;10.03;;;;;;;-2.76;82.97;102941.09;4965934;28;20026;-91
2024/01/08 00:53:05;;;;;;;16.20;8.77;;;;;;;-2.74;83.38;102947.16;4979240;28;20029;-90
2024/01/08 00:55:30;;;;;;;18.47;9.30;;;;;;;-2.74;82.88;102947.16;4983178;28;20042;-91
2024/01/08 00:57:58;;;;;;;17.50;8.97;;;;;;;-2.76;82.81;102941.94;4968642;28;20336;-92
2024/01/08 01:00:23;;;;;;;16.67;8.50;;;;;;;-2.80;82.65;102947.63;4964060;28;20029;-90
2024/01/08 01:02:49;;;;;;;15.33;8.17;;;;;;;-2.80;82.56;102945.06;4984047;28;20027;-90
2024/01/08 01:05:14;;;;;;;14.60;7.50;;;;;;;-2.82;82.91;102940.69;4979384;28;20038;-90
2024/01/08 01:07:39;;;;;;;13.93;7.70;;;;;;;-2.83;82.51;102944.00;4983621;28;20073;-91
2024/01/08 01:10:05;;;;;;;13.37;7.30;;;;;;;-2.83;82.25;102944.91;4965117;28;20479;-91
2024/01/08 01:12:30;;;;;;;12.93;7.43;;;;;;;-2.79;82.70;102943.44;4967691;28;20109;-90
2024/01/08 01:14:56;;;;;;;12.63;7.00;;;;;;;-2.81;82.70;102948.41;4983042;28;20105;-91
2024/01/08 01:17:21;;;;;;;11.70;6.40;;;;;;;-2.81;82.47;102953.50;4969722;28;20483;-91
2024/01/08 01:19:46;;;;;;;13.17;6.40;;;;;;;-2.81;82.63;102950.97;4982546;28;20399;-90
2024/01/08 01:22:12;;;;;;;10.87;6.40;;;;;;;-2.80;81.75;102959.50;4964736;28;20038;-91
2024/01/08 01:24:37;;;;;;;10.93;5.60;;;;;;;-2.80;82.06;102955.28;4970084;28;20137;-91
2024/01/08 01:27:03;;;;;;;10.80;5.77;;;;;;;-2.81;82.21;102947.53;4982085;28;20057;-91
2024/01/08 01:29:28;;;;;;;12.00;6.43;;;;;;;-2.86;81.55;102954.00;4988273;28;20141;-91
2024/01/08 01:31:53;;;;;;;11.40;6.40;;;;;;;-2.91;82.03;102948.63;4985215;28;20053;-91
2024/01/08 01:34:19;;;;;;;9.83;5.70;;;;;;;-2.95;82.20;102945.00;4984712;28;20094;-90
2024/01/08 01:36:45;;;;;;;8.47;5.40;;;;;;;-3.01;82.34;102951.38;4984812;28;20194;-90
2024/01/08 01:39:11;;;;;;;8.10;4.87;;;;;;;-3.06;82.06;102951.94;4962377;28;20023;-90
2024/01/08 01:41:36;;;;;;;9.07;5.40;;;;;;;-3.08;82.13;102965.38;4983948;28;20038;-91
2024/01/08 01:44:02;;;;;;;9.27;5.37;;;;;;;-3.09;82.36;102956.84;4983701;28;20526;-90
2024/01/08 01:46:41;;;;;;;7.77;5.13;;;;;;;-3.07;82.09;102962.91;4983057;28;20130;-91
2024/01/08 01:49:18;;;;;;;9.53;5.33;;;;;;;-3.07;82.49;102967.09;4981032;28;20034;-91
2024/01/08 01:51:46;;;;;;;9.17;5.60;;;;;;;-3.07;82.56;102969.66;4967710;28;20113;-91
2024/01/08 01:54:15;;;;;;;10.13;5.70;;;;;;;-3.04;83.17;102964.78;4983336;28;20488;-92
2024/01/08 01:56:42;;;;;;;7.90;5.03;;;;;;;-2.98;82.53;102970.28;4984033;28;20022;-90
2024/01/08 01:59:08;;;;;;;8.67;4.73;;;;;;;-3.00;82.83;102965.88;4983285;28;20030;-90
2024/01/08 02:01:35;;;;;;;9.73;4.63;;;;;;;-3.02;82.43;102969.97;4980161;28;20026;-91
2024/01/08 02:04:02;;;;;;;10.13;4.67;;;;;;;-3.03;82.88;102974.19;4981366;28;20026;-90
2024/01/08 02:06:28;;;;;;;6.83;4.20;;;;;;;-3.08;82.19;102971.34;4989725;28;20030;-90
2024/01/08 02:08:54;;;;;;;6.50;4.10;;;;;;;-3.11;81.89;102973.69;4984434;28;20034;-91
2024/01/08 02:11:20;;;;;;;7.20;4.27;;;;;;;-3.20;82.52;102973.97;4984812;28;20022;-91
2024/01/08 02:13:46;;;;;;;6.43;3.57;;;;;;;-3.27;82.63;102974.34;4967942;28;20400;-90
2024/01/08 02:16:11;;;;;;;7.13;3.80;;;;;;;-3.33;82.60;102971.41;4984257;28;20022;-91
2024/01/08 02:18:36;;;;;;;6.27;3.77;;;;;;;-3.41;82.28;102973.44;4983273;28;20037;-90
2024/01/08 02:21:02;;;;;;;5.33;3.37;;;;;;;-3.42;82.29;102975.91;4983850;28;20034;-91
2024/01/08 02:23:27;;;;;;;6.93;3.07;;;;;;;-3.47;81.96;102973.00;4981341;28;20096;-91
2024/01/08 02:25:53;;;;;;;6.00;3.40;;;;;;;-3.48;83.28;102980.56;4967620;28;20081;-91
2024/01/08 02:28:18;;;;;;;6.03;3.30;;;;;;;-3.48;82.37;102975.47;4971553;28;20022;-91
2024/01/08 02:30:43;;;;;;;6.47;3.50;;;;;;;-3.52;82.43;102975.25;4968449;28;20661;-91
2024/01/08 02:33:09;;;;;;;6.07;3.40;;;;;;;-3.57;82.50;102986.78;4988088;28;20593;-91
2024/01/08 02:35:36;;;;;;;5.93;3.40;;;;;;;-3.61;83.15;102984.84;4984969;28;20027;-91
2024/01/08 02:38:01;;;;;;;5.23;3.30;;;;;;;-3.66;82.66;102976.88;4971123;28;20463;-91
2024/01/08 02:40:28;;;;;;;5.37;2.97;;;;;;;-3.67;83.02;102990.38;4988187;28;20046;-90
2024/01/08 02:42:53;;;;;;;5.10;3.00;;;;;;;-3.70;83.24;102991.84;4987667;28;20025;-91
2024/01/08 02:45:18;;;;;;;5.23;2.77;;;;;;;-3.69;83.08;102980.88;4986316;28;20049;-91
2024/01/08 02:47:44;;;;;;;5.17;3.03;;;;;;;-3.71;83.46;102988.41;4967098;28;20030;-90
2024/01/08 02:50:10;;;;;;;8.57;3.40;;;;;;;-3.75;82.99;102990.63;4988206;28;20026;-91
2024/01/08 02:52:35;;;;;;;5.83;3.30;;;;;;;-3.78;83.87;102995.53;4967062;28;20065;-90
2024/01/08 02:55:02;;;;;;;6.97;3.47;;;;;;;-3.79;83.28;102986.13;4980300;28;20077;-90
2024/01/08 02:57:28;;;;;;;6.47;3.00;;;;;;;-3.83;84.16;102985.91;4990966;28;20042;-91
2024/01/08 02:59:54;;;;;;;6.43;3.10;;;;;;;-3.83;84.00;102996.09;4986175;28;20030;-91
2024/01/08 03:02:19;;;;;;;6.37;3.50;;;;;;;-3.83;84.06;102993.56;4967475;28;20092;-90
2024/01/08 03:04:45;;;;;;;7.07;3.10;;;;;;;-3.84;83.68;102996.88;4989363;28;20463;-90
2024/01/08 03:07:12;;;;;;;6.03;3.20;;;;;;;-3.84;84.36;102990.88;4973573;28;20058;-90
2024/01/08 03:09:37;;;;;;;5.97;3.20;;;;;;;-3.84;83.88;102986.69;4981517;28;20089;-91
2024/01/08 03:12:03;;;;;;;6.27;3.27;;;;;;;-3.85;84.08;102992.56;4982031;28;20035;-90
2024/01/08 03:14:28;;;;;;;6.77;3.20;;;;;;;-3.82;84.63;102989.34;4975099;28;20026;-90
2024/01/08 03:16:53;;;;;;;6.20;3.10;;;;;;;-3.80;84.67;102987.78;4969391;28;20037;-90
2024/01/08 03:19:19;;;;;;;6.07;3.03;;;;;;;-3.78;84.80;102990.44;4986458;28;20046;-90
2024/01/08 03:21:44;;;;;;;6.70;3.53;;;;;;;-3.79;85.06;102984.47;4964189;28;20110;-90
2024/01/08 03:24:09;;;;;;;7.30;3.50;;;;;;;-3.80;84.87;102997.94;4971768;28;20519;-90
2024/01/08 03:26:35;;;;;;;6.73;3.47;;;;;;;-3.75;85.20;102995.72;4990429;28;20507;-91
2024/01/08 03:29:00;;;;;;;5.87;3.03;;;;;;;-3.75;85.21;103003.34;4988258;28;20620;-90
2024/01/08 03:31:25;;;;;;;7.60;3.63;;;;;;;-3.71;85.19;103003.69;4990026;28;20506;-91
2024/01/08 03:33:51;;;;;;;6.13;3.47;;;;;;;-3.70;85.75;102989.28;4988138;28;20479;-90
2024/01/08 03:36:16;;;;;;;6.20;3.33;;;;;;;-3.68;85.01;102988.63;4990872;28;20030;-90
2024/01/08 03:38:42;;;;;;;5.87;3.57;;;;;;;-3.66;85.14;102988.72;4971176;28;20054;-90
2024/01/08 03:41:07;;;;;;;5.40;3.10;;;;;;;-3.63;84.85;102994.03;4989156;28;20069;-90
2024/01/08 03:43:32;;;;;;;6.07;3.27;;;;;;;-3.62;85.18;103002.53;4967607;28;20046;-90
2024/01/08 03:45:58;;;;;;;5.77;3.27;;;;;;;-3.60;85.63;103001.88;4987106;28;20030;-90
2024/01/08 03:48:23;;;;;;;6.57;3.40;;;;;;;-3.59;85.63;103000.19;4968659;28;20046;-90
2024/01/08 03:50:48;;;;;;;6.83;3.63;;;;;;;-3.58;85.54;103000.28;4964109;28;20023;-90
2024/01/08 03:53:14;;;;;;;5.00;3.00;;;;;;;-3.57;85.50;102996.97;4988133;28;20026;-91
2024/01/08 03:55:40;;;;;;;6.23;3.40;;;;;;;-3.54;85.09;102997.16;4989507;28;20234;-90
2024/01/08 03:58:05;;;;;;;6.87;3.40;;;;;;;-3.54;85.73;102988.69;4983201;28;20797;-91
2024/01/08 04:00:30;;;;;;;6.43;3.63;;;;;;;-3.54;85.23;102997.16;4988193;28;20074;-91
2024/01/08 04:02:56;;;;;;;6.83;3.87;;;;;;;-3.53;85.34;102991.31;4980500;28;20070;-90
2024/01/08 04:05:21;;;;;;;6.30;3.43;;;;;;;-3.51;85.14;102994.84;4989692;28;20105;-91
2024/01/08 04:07:46;;;;;;;6.37;3.30;;;;;;;-3.49;84.93;102997.47;4987303;28;20128;-90
2024/01/08 04:10:12;;;;;;;6.27;3.43;;;;;;;-3.48;85.36;102990.75;4983968;28;20069;-90
2024/01/08 04:12:37;;;;;;;7.87;3.30;;;;;;;-3.47;85.41;102990.84;4984792;28;20030;-91
2024/01/08 04:15:03;;;;;;;7.23;3.43;;;;;;;-3.45;85.38;102986.72;4983976;28;20991;-90
2024/01/08 04:17:29;;;;;;;7.03;3.53;;;;;;;-3.44;85.35;102977.44;4985016;28;20142;-90
2024/01/08 04:19:54;;;;;;;7.43;3.80;;;;;;;-3.43;84.92;102986.84;4983627;28;20030;-90
2024/01/08 04:22:19;;;;;;;6.93;3.63;;;;;;;-3.41;84.93;102982.72;4982608;28;20077;-91
2024/01/08 04:24:45;;;;;;;7.43;3.30;;;;;;;-3.39;85.73;102987.16;4987925;28;20502;-91
2024/01/08 04:27:10;;;;;;;9.40;3.67;;;;;;;-3.39;85.87;103001.53;4985789;28;20049;-90
2024/01/08 04:29:36;;;;;;;7.97;3.50;;;;;;;-3.38;85.34;102998.19;4968740;28;20033;-91
2024/01/08 04:32:01;;;;;;;5.27;2.93;;;;;;;-3.34;85.14;102996.75;4966597;28;20058;-90
2024/01/08 04:34:27;;;;;;;7.00;3.43;;;;;;;-3.33;85.26;102994.31;4984896;28;20101;-90
2024/01/08 04:36:52;;;;;;;7.10;3.27;;;;;;;-3.33;85.58;102996.84;4965396;28;20029;-90
2024/01/08 04:39:17;;;;;;;7.03;3.60;;;;;;;-3.32;85.97;102996.06;4979735;28;20060;-90
2024/01/08 04:41:43;;;;;;;6.80;2.93;;;;;;;-3.30;86.08;102989.41;4968049;28;20033;-91
2024/01/08 04:44:09;;;;;;;5.87;3.33;;;;;;;-3.29;85.57;102991.19;4965516;28;20031;-90
2024/01/08 04:46:35;;;;;;;5.70;3.23;;;;;;;-3.27;85.24;102994.72;4987228;28;20054;-90
2024/01/08 04:49:02;;;;;;;7.63;3.57;;;;;;;-3.25;85.37;102990.63;4986964;28;20428;-90
2024/01/08 04:51:27;;;;;;;7.20;3.40;;;;;;;-3.26;85.90;102995.59;4968998;28;20120;-91
2024/01/08 04:53:53;;;;;;;6.43;3.30;;;;;;;-3.26;85.46;102988.84;4985186;28;20061;-90
2024/01/08 04:56:23;;;;;;;7.53;3.80;;;;;;;-3.24;86.04;102989.81;4969748;28;20048;-89
2024/01/08 04:58:51;;;;;;;5.50;3.13;;;;;;;-3.20;86.17;102988.38;4977464;28;20030;-90
2024/01/08 05:01:17;;;;;;;6.60;3.60;;;;;;;-3.21;85.86;102992.56;4983847;28;20034;-90
2024/01/08 05:03:46;;;;;;;7.80;3.37;;;;;;;-3.20;86.28;102984.16;4962967;28;20038;-90
2024/01/08 05:06:12;;;;;;;5.97;3.50;;;;;;;-3.14;86.33;102987.88;4982009;28;20045;-90
2024/01/08 05:08:40;;;;;;;7.97;4.17;;;;;;;-3.12;86.98;102988.88;4961082;28;20036;-90
2024/01/08 05:11:06;;;;;;;6.87;3.13;;;;;;;-3.07;86.74;102995.13;4980835;28;20033;-90
2024/01/08 05:13:34;;;;;;;7.37;3.53;;;;;;;-3.06;87.06;102991.78;4983068;28;20038;-91
2024/01/08 05:16:03;;;;;;;5.67;3.03;;;;;;;-3.06;86.44;102996.88;4985427;28;20034;-89
2024/01/08 05:18:28;;;;;;;7.60;3.70;;;;;;;-3.07;86.68;102992.56;4986557;28;20054;-91
2024/01/08 05:20:54;;;;;;;7.23;3.17;;;;;;;-3.05;87.07;102994.47;4966487;28;20030;-90
2024/01/08 05:23:20;;;;;;;6.43;3.67;;;;;;;-3.01;86.41;102998.09;4981783;28;20031;-90
2024/01/08 05:25:45;;;;;;;8.13;3.40;;;;;;;-3.04;87.00;102995.31;4985030;28;20022;-90
2024/01/08 05:28:10;;;;;;;7.10;3.50;;;;;;;-3.03;87.25;102992.00;4963730;28;20487;-90
2024/01/08 05:30:36;;;;;;;8.00;4.03;;;;;;;-3.00;86.49;102992.22;4984975;28;20110;-90
2024/01/08 05:33:02;;;;;;;8.20;3.97;;;;;;;-2.99;87.06;102993.97;4985110;28;20050;-90
2024/01/08 05:35:27;;;;;;;6.37;3.50;;;;;;;-2.97;86.37;102991.50;4986498;28;20045;-90
2024/01/08 05:37:53;;;;;;;6.67;3.80;;;;;;;-2.99;87.66;102985.47;4985521;28;20432;-91
2024/01/08 05:40:18;;;;;;;8.63;3.93;;;;;;;-3.01;86.69;102985.34;4965188;28;20543;-90
2024/01/08 05:42:43;;;;;;;7.23;3.70;;;;;;;-3.00;87.03;102987.13;4986354;28;20034;-91
2024/01/08 05:45:10;;;;;;;9.00;4.30;;;;;;;-3.01;86.89;102987.03;4985202;28;20117;-90
2024/01/08 05:47:35;;;;;;;8.00;4.17;;;;;;;-3.02;87.16;102983.56;4984853;28;20026;-91
2024/01/08 05:50:05;;;;;;;8.90;4.30;;;;;;;-3.03;87.17;102980.94;4988442;28;20118;-90
2024/01/08 05:52:31;;;;;;;7.50;4.10;;;;;;;-3.02;87.69;102987.81;4976692;28;20395;-90
2024/01/08 05:54:56;;;;;;;7.13;3.87;;;;;;;-3.01;86.85;102985.34;4985566;28;20488;-90
2024/01/08 05:57:22;;;;;;;9.73;4.80;;;;;;;-3.03;87.46;102992.00;4982059;28;20023;-90
2024/01/08 05:59:47;;;;;;;10.63;4.10;;;;;;;-3.05;87.49;102991.91;4985593;28;20062;-90
2024/01/08 06:02:12;;;;;;;8.87;4.43;;;;;;;-3.04;87.39;102980.03;4971380;28;20033;-91
2024/01/08 06:04:38;;;;;;;8.40;4.13;;;;;;;-3.05;88.05;102983.38;4972279;28;20534;-90
2024/01/08 06:07:04;;;;;;;7.20;3.80;;;;;;;-3.01;87.73;102990.44;4988335;28;20114;-90
2024/01/08 06:09:30;;;;;;;6.83;3.87;;;;;;;-3.03;87.29;102986.91;4990741;28;20125;-90
2024/01/08 06:11:55;;;;;;;8.13;4.03;;;;;;;-3.05;87.73;102978.28;4988738;28;20026;-90
2024/01/08 06:14:20;;;;;;;8.07;3.97;;;;;;;-3.03;87.92;102981.81;4984685;28;20077;-90
2024/01/08 06:16:46;;;;;;;9.03;5.03;;;;;;;-2.99;88.09;102983.78;4987583;28;20058;-91
2024/01/08 06:19:11;;;;;;;9.83;4.70;;;;;;;-3.02;87.45;102983.56;4973256;28;20026;-91
2024/01/08 06:21:36;;;;;;;8.50;4.47;;;;;;;-3.02;88.22;102986.13;4992276;28;20498;-91
2024/01/08 06:24:02;;;;;;;8.17;4.60;;;;;;;-3.01;88.07;102982.81;4987700;28;20053;-91
2024/01/08 06:26:30;;;;;;;9.07;4.83;;;;;;;-3.03;87.80;102986.91;4971864;28;20388;-91
2024/01/08 06:28:55;;;;;;;6.97;3.93;;;;;;;-3.00;88.07;102987.13;4968295;28;20112;-91
2024/01/08 06:31:21;;;;;;;9.93;5.20;;;;;;;-3.01;88.11;102977.72;4987531;28;20471;-91
2024/01/08 06:33:46;;;;;;;9.23;4.87;;;;;;;-3.02;88.45;102982.72;4985187;28;20029;-90
2024/01/08 06:36:12;;;;;;;11.20;5.47;;;;;;;-3.00;88.07;102976.94;4986407;28;20110;-90
2024/01/08 06:38:37;;;;;;;8.67;4.77;;;;;;;-2.97;88.95;102974.59;4975817;28;20033;-91
2024/01/08 06:41:03;;;;;;;8.53;4.77;;;;;;;-2.96;89.12;102978.00;4969142;28;20064;-91
2024/01/08 06:43:28;;;;;;;9.87;4.80;;;;;;;-2.94;89.08;102973.88;4984869;28;20042;-87
2024/01/08 06:45:53;;;;;;;9.53;5.30;;;;;;;-2.94;88.41;102977.34;4990031;28;20455;-93
2024/01/08 06:48:19;;;;;;;8.07;4.40;;;;;;;-2.93;88.90;102984.19;4990621;28;20034;-90
2024/01/08 06:50:44;;;;;;;9.40;5.10;;;;;;;-2.91;88.84;102980.09;4967374;28;20443;-90
2024/01/08 06:53:09;;;;;;;8.73;4.37;;;;;;;-2.91;88.95;102975.00;4987477;28;20034;-90
2024/01/08 06:55:35;;;;;;;9.03;4.73;;;;;;;-2.90;88.79;102976.72;4970376;28;20118;-91
2024/01/08 06:58:00;;;;;;;8.93;4.53;;;;;;;-2.88;89.07;102978.50;4970337;28;20038;-90
2024/01/08 07:00:28;;;;;;;7.37;4.40;;;;;;;-2.86;88.56;102975.28;4990098;28;20121;-91
2024/01/08 07:02:53;;;;;;;8.67;4.80;;;;;;;-2.85;88.82;102976.16;4972146;28;20022;-89
2024/01/08 07:05:19;;;;;;;8.67;4.67;;;;;;;-2.85;88.76;102982.13;4990479;28;20046;-90
2024/01/08 07:07:44;;;;;;;8.87;4.77;;;;;;;-2.81;88.98;102988.31;4970889;28;20038;-90
2024/01/08 07:10:10;;;;;;;9.97;4.73;;;;;;;-2.80;89.06;102992.63;4980355;28;20035;-90
2024/01/08 07:12:35;;;;;;;8.80;4.63;;;;;;;-2.79;89.66;102991.84;4970622;28;20050;-89
2024/01/08 07:15:03;;;;;;;8.17;4.43;;;;;;;-2.76;89.38;102992.91;4967284;28;20035;-89
2024/01/08 07:17:28;;;;;;;7.57;4.20;;;;;;;-2.74;89.39;102995.56;4989411;28;20045;-89
2024/01/08 07:19:54;;;;;;;10.27;5.40;;;;;;;-2.74;89.16;103005.75;4985031;28;20034;-91
2024/01/08 07:22:19;;;;;;;9.80;4.93;;;;;;;-2.70;89.51;103005.16;4969738;28;20030;-89
2024/01/08 07:24:44;;;;;;;11.13;5.10;;;;;;;-2.67;89.21;103000.25;4991073;28;20114;-90
2024/01/08 07:27:10;;;;;;;8.33;4.60;;;;;;;-2.66;88.98;103004.56;4970387;28;20498;-89
2024/01/08 07:29:35;;;;;;;7.60;4.60;;;;;;;-2.66;88.69;103007.13;4963278;28;20472;-90
2024/01/08 07:32:00;;;;;;;9.00;4.67;;;;;;;-2.65;89.04;103011.44;4991673;28;20049;-89
2024/01/08 07:34:26;;;;;;;9.40;4.73;;;;;;;-2.63;88.42;103004.78;4986804;28;20054;-89
2024/01/08 07:36:51;;;;;;;11.00;5.33;;;;;;;-2.60;88.78;103002.41;4967567;28;20030;-90
2024/01/08 07:39:16;;;;;;;10.93;5.00;;;;;;;-2.62;88.44;103006.53;4963315;28;20045;-90
2024/01/08 07:41:42;;;;;;;9.93;5.00;;;;;;;-2.63;88.62;103003.88;4984540;28;20092;-90
2024/01/08 07:44:07;;;;;;;10.30;5.00;;;;;;;-2.62;88.32;103001.44;4990680;28;20042;-90
2024/01/08 07:46:32;;;;;;;8.03;4.40;;;;;;;-2.63;88.85;103014.97;4982096;28;20030;-90
2024/01/08 07:48:58;;;;;;;8.33;4.53;;;;;;;-2.61;88.63;103013.41;4973604;28;20038;-90
2024/01/08 07:51:24;;;;;;;8.53;4.80;;;;;;;-2.62;87.65;103019.28;4984317;28;20018;-89
2024/01/08 07:53:51;;;;;;;8.13;4.40;;;;;;;-2.61;87.87;103012.50;4972518;28;20026;-90
2024/01/08 07:56:16;;;;;;;8.43;4.60;;;;;;;-2.59;88.22;103018.56;4985123;28;20033;-89
2024/01/08 07:58:41;;;;;;;8.33;4.40;;;;;;;-2.58;88.07;103016.94;4982651;28;20034;-89
2024/01/08 08:01:12;;;;;;;9.73;4.93;;;;;;;-2.57;88.04;103028.88;4967210;28;20161;-90
2024/01/08 08:03:38;;;;;;;7.40;4.23;;;;;;;-2.58;88.32;103016.94;4987246;28;20037;-90
2024/01/08 08:06:03;;;;;;;7.63;4.13;;;;;;;-2.56;88.67;103015.38;4984155;28;20038;-90
2024/01/08 08:08:31;;;;;;;8.27;4.17;;;;;;;-2.52;88.60;103022.41;4984288;28;20123;-91
2024/01/08 08:10:58;;;;;;;9.13;4.73;;;;;;;-2.55;88.40;103023.09;4984931;28;20033;-90
2024/01/08 08:13:23;;;;;;;8.63;4.50;;;;;;;-2.52;88.27;103020.75;4977837;28;20037;-90
2024/01/08 08:15:49;;;;;;;8.50;4.33;;;;;;;-2.51;87.98;103019.06;4981065;28;20030;-91
2024/01/08 08:18:14;;;;;;;8.47;4.57;;;;;;;-2.49;88.32;103027.69;4989387;28;20035;-90
2024/01/08 08:20:39;;;;;;;8.70;4.63;;;;;;;-2.50;87.92;103026.81;4979037;28;20030;-89
2024/01/08 08:23:05;;;;;;;7.67;4.30;;;;;;;-2.52;87.76;103022.41;4959082;28;20475;-90
2024/01/08 08:25:30;;;;;;;7.20;4.20;;;;;;;-2.48;88.61;103029.47;4987023;28;20411;-90
2024/01/08 08:27:55;;;;;;;8.43;4.63;;;;;;;-2.52;88.43;103032.59;4986544;28;20026;-89
2024/01/08 08:30:22;;;;;;;7.77;4.00;;;;;;;-2.51;87.76;103026.72;4981953;28;20113;-90
2024/01/08 08:32:47;;;;;;;7.67;4.40;;;;;;;-2.51;88.61;103031.81;4990417;28;20043;-90
2024/01/08 08:35:13;;;;;;;8.60;4.23;;;;;;;-2.51;88.60;103037.81;4977840;28;20143;-90
2024/01/08 08:37:38;;;;;;;6.87;3.80;;;;;;;-2.47;88.16;103031.22;4987967;28;20475;-89
2024/01/08 08:40:04;;;;;;;7.97;4.07;;;;;;;-2.46;88.45;103033.00;4990229;28;20034;-89
2024/01/08 08:42:29;;;;;;;6.67;3.60;;;;;;;-2.45;88.43;103039.84;4968498;28;20045;-91
2024/01/08 08:44:55;;;;;;;7.93;4.33;;;;;;;-2.46;88.88;103040.63;4968463;28;20022;-91
2024/01/08 08:47:21;;;;;;;8.07;4.40;;;;;;;-2.47;88.58;103042.28;4969422;28;20034;-90
2024/01/08 08:49:47;;;;;;;9.03;4.53;;;;;;;-2.47;88.69;103047.38;4985613;28;20029;-90
2024/01/08 08:52:13;;;;;;;8.40;3.93;;;;;;;-2.46;88.66;103038.97;4981271;28;20026;-91
2024/01/08 08:54:38;;;;;;;6.87;4.13;;;;;;;-2.45;88.62;103039.84;4983725;28;20073;-90
2024/01/08 08:57:04;;;;;;;7.87;4.07;;;;;;;-2.49;89.18;103045.53;4983009;28;20049;-90
2024/01/08 08:59:29;;;;;;;7.83;3.93;;;;;;;-2.47;88.76;103052.47;4987008;28;20037;-91
2024/01/08 09:01:55;;;;;;;7.53;4.20;;;;;;;-2.45;89.19;103044.94;4983573;28;20066;-90
2024/01/08 09:04:20;;;;;;;8.23;4.07;;;;;;;-2.44;89.22;103046.72;4986150;28;20431;-91
2024/01/08 09:06:45;;;;;;;8.33;4.40;;;;;;;-2.39;88.93;103052.09;4984978;28;20018;-90
2024/01/08 09:09:12;;;;;;;7.80;4.23;;;;;;;-2.42;88.98;103050.25;4989357;28;20113;-90
2024/01/08 09:11:38;;;;;;;6.53;3.80;;;;;;;-2.39;89.09;103052.97;4988054;28;20117;-91
2024/01/08 09:14:05;;;;;;;7.43;4.33;;;;;;;-2.37;89.15;103064.16;4985824;28;20471;-90
2024/01/08 09:16:30;;;;;;;9.13;4.50;;;;;;;-2.33;88.74;103055.91;4980996;28;20486;-91
2024/01/08 09:18:56;;;;;;;8.03;4.87;;;;;;;-2.33;89.50;103061.00;4963932;28;20034;-91
2024/01/08 09:21:21;;;;;;;8.73;4.60;;;;;;;-2.36;89.92;103055.72;4988347;28;20475;-90
2024/01/08 09:23:47;;;;;;;7.60;4.13;;;;;;;-2.34;89.44;103053.28;4989959;28;20027;-89
2024/01/08 09:26:12;;;;;;;7.97;4.67;;;;;;;-2.38;90.31;103064.94;4968818;28;20121;-90
2024/01/08 09:28:37;;;;;;;7.73;4.67;;;;;;;-2.39;90.50;103060.63;4980730;28;20031;-90
2024/01/08 09:31:04;;;;;;;8.63;4.40;;;;;;;-2.41;91.09;103074.97;4966146;28;20568;-90
2024/01/08 09:33:30;;;;;;;7.93;4.40;;;;;;;-2.42;90.80;103063.00;4985467;28;20055;-90
2024/01/08 09:35:56;;;;;;;8.73;4.30;;;;;;;-2.42;91.48;103070.66;4972957;28;20026;-91
2024/01/08 09:38:21;;;;;;;8.77;4.70;;;;;;;-2.40;91.13;103073.28;4969742;28;20599;-90
2024/01/08 09:40:48;;;;;;;9.37;4.77;;;;;;;-2.36;90.72;103071.00;4970434;28;20022;-90
2024/01/08 09:43:18;;;;;;;7.97;4.23;;;;;;;-2.32;91.32;103077.22;4972015;28;20030;-90
2024/01/08 09:46:05;;;;;;;7.03;4.33;;;;;;;-2.28;91.24;103081.69;4993083;28;20073;-90
2024/01/08 09:48:32;;;;;;;7.20;3.90;;;;;;;-2.26;90.34;103074.16;4969337;28;20096;-91
2024/01/08 09:51:01;;;;;;;7.00;3.83;;;;;;;-2.29;90.74;103083.38;4990774;28;20598;-90
2024/01/08 09:53:30;;;;;;;7.30;4.03;;;;;;;-2.23;91.33;103084.56;4987611;28;20460;-90
2024/01/08 09:55:56;;;;;;;7.70;4.40;;;;;;;-2.21;90.30;103075.31;4989762;28;20070;-90
2024/01/08 09:58:23;;;;;;;7.17;4.13;;;;;;;-2.18;90.90;103080.63;4990850;28;20038;-91
2024/01/08 10:00:49;;;;;;;6.97;4.10;;;;;;;-2.15;90.65;103081.72;4991504;28;20045;-91
2024/01/08 10:03:14;;;;;;;7.97;4.43;;;;;;;-2.13;90.97;103084.34;4968251;28;20060;-91
2024/01/08 10:05:39;;;;;;;6.37;4.00;;;;;;;-2.05;91.29;103082.28;4966870;28;20450;-89
2024/01/08 10:08:05;;;;;;;7.87;3.63;;;;;;;-2.01;90.15;103079.13;4987819;28;20190;-90
2024/01/08 10:10:32;;;;;;;7.03;3.80;;;;;;;-2.03;90.07;103079.03;4982947;28;20073;-90
2024/01/08 10:12:58;;;;;;;8.03;4.30;;;;;;;-2.01;90.52;103080.00;4965742;28;20033;-90
2024/01/08 10:15:23;;;;;;;7.83;4.27;;;;;;;-1.96;90.36;103081.97;4981558;28;20084;-90
2024/01/08 10:17:50;;;;;;;7.30;4.50;;;;;;;-1.94;90.38;103077.84;4989100;28;20030;-90
2024/01/08 10:20:16;;;;;;;6.13;3.90;;;;;;;-1.94;90.99;103071.06;4986012;28;20189;-90
2024/01/08 10:22:44;;;;;;;6.93;3.93;;;;;;;-1.94;89.78;103071.06;4966179;28;20034;-91
2024/01/08 10:25:10;;;;;;;7.03;3.73;;;;;;;-2.00;89.08;103070.69;4967013;28;20415;-91
2024/01/08 10:27:35;;;;;;;6.93;4.00;;;;;;;-2.07;89.55;103064.34;4984636;28;20059;-90
2024/01/08 10:30:02;;;;;;;7.10;4.20;;;;;;;-2.14;88.92;103068.19;4971545;28;20041;-91
2024/01/08 10:32:28;;;;;;;6.70;4.00;;;;;;;-2.17;89.02;103062.88;4987244;28;20053;-91
2024/01/08 10:34:55;;;;;;;7.13;3.83;;;;;;;-2.11;89.45;103066.56;4987007;28;20014;-90
2024/01/08 10:37:20;;;;;;;7.93;4.80;;;;;;;-2.10;88.47;103064.13;4984496;28;20026;-90
2024/01/08 10:39:47;;;;;;;6.00;3.90;;;;;;;-2.10;88.47;103058.13;4974416;28;20084;-91
2024/01/08 10:42:13;;;;;;;7.83;4.20;;;;;;;-2.09;88.81;103062.47;4989298;28;20157;-91
2024/01/08 10:44:39;;;;;;;6.53;3.80;;;;;;;-2.03;88.45;103063.72;4986095;28;20023;-89
2024/01/08 10:47:16;;;;;;;7.27;4.17;;;;;;;-1.95;88.39;103058.22;4970176;28;20033;-89
2024/01/08 10:49:48;;;;;;;7.17;4.07;;;;;;;-1.89;87.74;103056.06;4988097;28;20033;-90
2024/01/08 10:52:24;;;;;;;4.93;3.27;;;;;;;-1.86;88.14;103053.69;4983936;28;20030;-90
2024/01/08 10:54:57;;;;;;;6.20;3.70;;;;;;;-1.83;87.19;103051.31;4981592;28;20105;-94
2024/01/08 10:57:33;;;;;;;7.10;3.87;;;;;;;-1.79;86.88;103048.16;4975243;28;20092;-95
2024/01/08 10:59:59;;;;;;;7.13;3.93;;;;;;;-1.77;86.94;103033.84;4983216;28;20118;-89
2024/01/08 11:02:25;;;;;;;6.43;3.60;;;;;;;-1.73;86.15;103040.91;4987278;28;20105;-90
2024/01/08 11:04:57;;;;;;;6.23;3.70;;;;;;;-1.70;85.63;103035.09;4990325;28;20026;-90
2024/01/08 11:07:23;;;;;;;7.00;4.20;;;;;;;-1.66;84.07;103031.03;4986160;28;20093;-88
2024/01/08 11:09:48;;;;;;;7.53;4.37;;;;;;;-1.59;83.96;103035.75;4970336;28;20026;-87
2024/01/08 11:12:13;;;;;;;6.10;3.53;;;;;;;-1.54;85.35;103036.91;4987530;28;20023;-88
2024/01/08 11:14:40;;;;;;;6.30;3.60;;;;;;;-1.51;84.79;103034.50;4967005;28;20053;-89
2024/01/08 11:17:09;;;;;;;7.97;3.70;;;;;;;-1.55;83.99;103033.47;4970891;28;20614;-89
2024/01/08 11:19:45;;;;;;;7.77;3.90;;;;;;;-1.58;82.74;103040.06;4983203;28;20022;-91